Time;durP1;ratioP1;P1;durP2;ratioP2;P2;SDS_P1;SDS_P2;PMS_P1;PMS_P2;Temp;Humidity;BMP_temperature;BMP_pressure;BME280_temperature;BME280_humidity;BME280_pressure;Samples;Min_cycle;Max_cycle;Signal;HPM_P1;HPM_P2
2021/10/09 00:00:43;;;;;;;16.05;11.15;;;;;;;;;;5040590;28;20029;-69
2021/10/09 00:03:08;;;;;;;14.68;11.65;;;;;;;;;;5033471;28;20481;-68
2021/10/09 00:05:34;;;;;;;17.88;11.93;;;;;;;;;;5045801;28;20040;-69
2021/10/09 00:07:59;;;;;;;19.05;12.85;;;;;;;;;;5053987;28;20029;-69
2021/10/09 00:10:27;;;;;;;19.55;12.35;;;;;;;;;;5052060;28;20020;-68
2021/10/09 00:12:54;;;;;;;22.45;12.20;;;;;;;;;;5043255;28;20025;-69
2021/10/09 00:15:20;;;;;;;15.20;11.20;;;;;;;;;;5034177;28;20017;-69
2021/10/09 00:17:46;;;;;;;14.73;11.77;;;;;;;;;;5038307;28;20079;-69
2021/10/09 00:20:11;;;;;;;15.20;11.40;;;;;;;;;;5053541;28;20469;-69
2021/10/09 00:22:37;;;;;;;16.98;11.30;;;;;;;;;;5043184;28;20029;-69
2021/10/09 00:25:04;;;;;;;18.33;10.93;;;;;;;;;;5034238;28;20029;-69
2021/10/09 00:27:30;;;;;;;12.60;10.77;;;;;;;;;;5048254;28;20527;-69
2021/10/09 00:29:55;;;;;;;15.90;10.88;;;;;;;;;;5043551;28;20025;-69
2021/10/09 00:32:21;;;;;;;16.30;10.95;;;;;;;;;;5053233;28;20017;-69
2021/10/09 00:34:46;;;;;;;17.23;10.30;;;;;;;;;;5037811;28;20028;-69
2021/10/09 00:37:11;;;;;;;13.35;10.18;;;;;;;;;;5043634;28;20072;-69
2021/10/09 00:39:38;;;;;;;16.05;10.82;;;;;;;;;;5053012;28;20385;-69
2021/10/09 00:42:05;;;;;;;13.82;10.10;;;;;;;;;;5043604;28;20480;-69
2021/10/09 00:44:30;;;;;;;16.92;10.90;;;;;;;;;;5053051;28;20021;-69
2021/10/09 00:47:00;;;;;;;13.70;10.20;;;;;;;;;;5043512;28;20521;-69
2021/10/09 00:49:26;;;;;;;19.35;10.35;;;;;;;;;;5037542;28;20029;-69
2021/10/09 00:51:53;;;;;;;11.88;9.88;;;;;;;;;;5035992;28;20025;-69
2021/10/09 00:54:19;;;;;;;13.13;10.50;;;;;;;;;;5042862;28;20017;-69
2021/10/09 00:56:47;;;;;;;16.60;11.02;;;;;;;;;;5040064;28;20033;-69
2021/10/09 00:59:13;;;;;;;17.55;11.55;;;;;;;;;;5052052;28;20115;-69
2021/10/09 01:01:41;;;;;;;14.15;11.07;;;;;;;;;;5039334;28;20025;-69
2021/10/09 01:04:07;;;;;;;22.42;12.38;;;;;;;;;;5052760;28;20540;-69
2021/10/09 01:06:34;;;;;;;14.25;11.13;;;;;;;;;;5038675;28;20417;-69
2021/10/09 01:09:01;;;;;;;20.27;10.70;;;;;;;;;;5034680;28;20083;-69
2021/10/09 01:11:28;;;;;;;22.67;11.43;;;;;;;;;;5045246;28;20424;-69
2021/10/09 01:13:54;;;;;;;13.38;10.75;;;;;;;;;;5041265;28;20028;-69
2021/10/09 01:16:25;;;;;;;17.38;12.68;;;;;;;;;;5034643;28;20108;-69
2021/10/09 01:18:56;;;;;;;16.85;12.70;;;;;;;;;;5035816;28;20029;-69
2021/10/09 01:21:23;;;;;;;14.93;11.65;;;;;;;;;;5037524;28;20401;-70
2021/10/09 01:23:50;;;;;;;15.55;9.80;;;;;;;;;;5034879;28;20033;-69
2021/10/09 01:26:17;;;;;;;12.65;8.75;;;;;;;;;;5038238;28;20469;-69
2021/10/09 01:28:51;;;;;;;11.32;9.27;;;;;;;;;;5036583;28;20037;-69
2021/10/09 01:31:18;;;;;;;10.63;7.97;;;;;;;;;;5041376;28;20029;-69
2021/10/09 01:33:44;;;;;;;10.65;7.63;;;;;;;;;;5053238;28;20040;-69
2021/10/09 01:36:10;;;;;;;11.32;7.55;;;;;;;;;;5041588;28;20033;-69
2021/10/09 01:38:37;;;;;;;12.77;9.43;;;;;;;;;;5034202;28;20100;-69
2021/10/09 01:41:02;;;;;;;11.02;9.30;;;;;;;;;;5051015;28;20295;-69
2021/10/09 01:43:29;;;;;;;10.60;8.38;;;;;;;;;;5051186;28;20073;-69
2021/10/09 01:45:54;;;;;;;11.65;9.50;;;;;;;;;;5051807;28;20040;-69
2021/10/09 01:48:38;;;;;;;12.25;9.35;;;;;;;;;;5049439;28;20024;-70
2021/10/09 01:51:04;;;;;;;13.55;9.95;;;;;;;;;;5050265;28;20041;-69
2021/10/09 01:53:30;;;;;;;14.85;9.10;;;;;;;;;;5032394;28;20025;-69
2021/10/09 01:55:56;;;;;;;15.93;11.43;;;;;;;;;;5050097;28;20278;-69
2021/10/09 01:58:22;;;;;;;14.82;10.43;;;;;;;;;;5034656;28;20048;-69
2021/10/09 02:00:47;;;;;;;14.90;11.43;;;;;;;;;;5040691;28;20497;-69
2021/10/09 02:03:16;;;;;;;14.55;10.52;;;;;;;;;;5034661;28;20131;-70
2021/10/09 02:05:41;;;;;;;14.98;11.13;;;;;;;;;;5032526;28;20358;-70
2021/10/09 02:08:07;;;;;;;16.95;11.25;;;;;;;;;;5047581;28;20028;-69
2021/10/09 02:10:36;;;;;;;15.82;10.75;;;;;;;;;;5041126;28;20029;-69
2021/10/09 02:13:04;;;;;;;17.52;11.70;;;;;;;;;;5032910;28;20022;-69
2021/10/09 02:26:31;;;;;;;15.25;10.52;;;;;;;;;;5031883;28;20051;-71
2021/10/09 02:28:56;;;;;;;13.32;9.73;;;;;;;;;;5041055;28;20036;-69
2021/10/09 02:31:22;;;;;;;12.20;9.00;;;;;;;;;;5051669;28;20469;-70
2021/10/09 02:33:48;;;;;;;15.05;9.30;;;;;;;;;;5051547;28;20127;-69
2021/10/09 02:36:13;;;;;;;15.35;9.05;;;;;;;;;;5051613;28;20036;-69
2021/10/09 02:38:39;;;;;;;11.95;9.05;;;;;;;;;;5050323;28;20021;-69
2021/10/09 02:41:04;;;;;;;10.45;8.35;;;;;;;;;;5044454;28;20381;-69
2021/10/09 02:43:30;;;;;;;15.07;9.40;;;;;;;;;;5049219;28;20044;-69
2021/10/09 02:45:55;;;;;;;13.98;9.60;;;;;;;;;;5051487;28;20033;-69
2021/10/09 02:48:23;;;;;;;14.18;10.32;;;;;;;;;;5051472;28;20024;-69
2021/10/09 02:50:48;;;;;;;11.48;8.73;;;;;;;;;;5050344;28;20021;-69
2021/10/09 02:53:14;;;;;;;12.05;9.15;;;;;;;;;;5051535;28;20036;-69
2021/10/09 02:55:39;;;;;;;12.52;9.02;;;;;;;;;;5055815;28;20036;-69
2021/10/09 02:58:05;;;;;;;11.43;8.63;;;;;;;;;;5035025;28;20040;-69
2021/10/09 03:00:32;;;;;;;11.85;8.77;;;;;;;;;;5031214;28;20146;-70
2021/10/09 03:02:59;;;;;;;12.73;9.50;;;;;;;;;;5031289;28;20045;-70
2021/10/09 03:05:25;;;;;;;12.60;9.35;;;;;;;;;;5043887;28;20029;-69
2021/10/09 03:07:50;;;;;;;11.90;8.05;;;;;;;;;;5051104;28;20535;-69
2021/10/09 03:10:16;;;;;;;12.80;9.00;;;;;;;;;;5046990;28;20074;-69
2021/10/09 03:12:42;;;;;;;21.17;11.50;;;;;;;;;;5050279;28;20256;-69
2021/10/09 03:15:09;;;;;;;15.85;10.93;;;;;;;;;;5049988;28;20027;-69
2021/10/09 03:17:36;;;;;;;15.00;10.27;;;;;;;;;;5040328;28;20033;-69
2021/10/09 03:20:02;;;;;;;14.10;9.32;;;;;;;;;;5031193;28;20025;-69
2021/10/09 03:22:30;;;;;;;11.70;8.77;;;;;;;;;;5030838;28;20029;-69
2021/10/09 03:24:55;;;;;;;14.65;10.45;;;;;;;;;;5034552;28;20037;-69
2021/10/09 03:27:21;;;;;;;9.82;7.40;;;;;;;;;;5038315;28;20096;-69
2021/10/09 03:29:46;;;;;;;10.70;7.82;;;;;;;;;;5048894;28;20456;-69
2021/10/09 03:32:12;;;;;;;15.13;7.97;;;;;;;;;;5040749;28;20029;-69
2021/10/09 03:34:37;;;;;;;11.02;7.95;;;;;;;;;;5049991;28;20060;-69
2021/10/09 03:37:05;;;;;;;14.32;9.02;;;;;;;;;;5047147;28;20043;-69
2021/10/09 03:39:31;;;;;;;14.50;8.23;;;;;;;;;;5034202;28;20036;-69
2021/10/09 03:42:05;;;;;;;15.35;8.90;;;;;;;;;;5045563;28;20032;-70
2021/10/09 03:44:35;;;;;;;13.93;8.82;;;;;;;;;;5050281;28;20358;-69
2021/10/09 03:47:13;;;;;;;12.85;7.80;;;;;;;;;;5050391;28;20439;-69
2021/10/09 03:49:46;;;;;;;9.07;6.57;;;;;;;;;;5048435;28;20031;-69
2021/10/09 03:54:55;;;;;;;11.77;6.40;;;;;;;;;;5033345;28;20049;-69
2021/10/09 03:57:21;;;;;;;10.40;6.20;;;;;;;;;;5050790;28;20457;-70
2021/10/09 03:59:46;;;;;;;16.05;6.85;;;;;;;;;;5048821;28;20071;-69
2021/10/09 04:02:12;;;;;;;11.00;6.68;;;;;;;;;;5046133;28;20056;-69
2021/10/09 04:04:37;;;;;;;11.05;7.07;;;;;;;;;;5041469;28;20037;-69
2021/10/09 04:07:03;;;;;;;11.25;7.40;;;;;;;;;;5030804;28;20022;-69
2021/10/09 04:09:28;;;;;;;15.27;7.30;;;;;;;;;;5030498;28;20029;-69
2021/10/09 04:11:54;;;;;;;8.73;6.13;;;;;;;;;;5045228;28;20036;-69
2021/10/09 04:14:19;;;;;;;12.40;7.10;;;;;;;;;;5050138;28;20028;-69
2021/10/09 04:16:45;;;;;;;10.52;6.38;;;;;;;;;;5031998;28;20363;-70
2021/10/09 04:19:10;;;;;;;8.50;6.22;;;;;;;;;;5045510;28;20152;-70
2021/10/09 04:21:36;;;;;;;11.23;7.75;;;;;;;;;;5035968;28;20028;-70
2021/10/09 04:24:01;;;;;;;10.32;6.57;;;;;;;;;;5041644;28;20064;-70
2021/10/09 04:26:27;;;;;;;10.23;6.40;;;;;;;;;;5030442;28;20075;-70
2021/10/09 04:28:52;;;;;;;9.32;6.10;;;;;;;;;;5029198;28;20044;-70
2021/10/09 04:31:18;;;;;;;15.82;6.75;;;;;;;;;;5044719;28;20067;-70
2021/10/09 04:33:43;;;;;;;9.38;6.65;;;;;;;;;;5053893;28;20017;-70
2021/10/09 04:36:09;;;;;;;12.93;7.05;;;;;;;;;;5045096;28;20059;-70
2021/10/09 04:38:35;;;;;;;12.27;7.45;;;;;;;;;;5050061;28;20035;-70
2021/10/09 04:41:00;;;;;;;10.68;6.45;;;;;;;;;;5040398;28;20025;-70
2021/10/09 04:43:26;;;;;;;9.93;6.78;;;;;;;;;;5049814;28;20426;-70
2021/10/09 04:45:51;;;;;;;12.25;6.15;;;;;;;;;;5049335;28;20496;-70
2021/10/09 04:48:17;;;;;;;9.85;6.07;;;;;;;;;;5040256;28;20028;-70
2021/10/09 04:50:42;;;;;;;10.57;6.55;;;;;;;;;;5053003;28;20076;-70
2021/10/09 04:53:08;;;;;;;10.93;6.22;;;;;;;;;;5052871;28;20029;-70
2021/10/09 04:55:33;;;;;;;9.63;6.20;;;;;;;;;;5055937;28;20025;-71
2021/10/09 04:57:59;;;;;;;9.07;6.35;;;;;;;;;;5066271;28;20420;-71
2021/10/09 05:00:24;;;;;;;9.45;6.68;;;;;;;;;;5046564;28;20120;-71
2021/10/09 05:02:50;;;;;;;9.88;6.88;;;;;;;;;;5038214;28;20025;-72
2021/10/09 05:05:15;;;;;;;15.57;6.72;;;;;;;;;;5033696;28;20532;-71
2021/10/09 05:07:41;;;;;;;11.70;7.22;;;;;;;;;;5040381;28;20036;-70
2021/10/09 05:10:08;;;;;;;9.38;6.70;;;;;;;;;;5052871;28;20039;-71
2021/10/09 05:12:35;;;;;;;10.88;7.03;;;;;;;;;;5042163;28;20037;-71
2021/10/09 05:15:00;;;;;;;9.35;6.80;;;;;;;;;;5053476;28;20027;-71
2021/10/09 05:17:25;;;;;;;11.73;7.45;;;;;;;;;;5052974;28;20416;-70
2021/10/09 05:19:51;;;;;;;10.70;6.63;;;;;;;;;;5052528;28;20037;-70
2021/10/09 05:22:16;;;;;;;9.10;6.20;;;;;;;;;;5044558;28;20037;-70
2021/10/09 05:24:42;;;;;;;11.13;6.00;;;;;;;;;;5033124;28;20030;-71
2021/10/09 05:27:07;;;;;;;7.72;5.28;;;;;;;;;;5045573;28;20020;-71
2021/10/09 05:29:33;;;;;;;9.93;6.07;;;;;;;;;;5048637;28;20477;-70
2021/10/09 05:32:06;;;;;;;8.90;5.90;;;;;;;;;;5052940;28;20032;-71
2021/10/09 05:34:31;;;;;;;10.45;6.35;;;;;;;;;;5051470;28;20477;-70
2021/10/09 05:36:58;;;;;;;11.23;6.72;;;;;;;;;;5042529;28;20033;-70
2021/10/09 05:39:24;;;;;;;8.60;5.68;;;;;;;;;;5052053;28;20506;-70
2021/10/09 05:41:49;;;;;;;11.23;6.00;;;;;;;;;;5044919;28;20029;-70
2021/10/09 05:44:15;;;;;;;8.95;5.93;;;;;;;;;;5052933;28;20044;-70
2021/10/09 05:46:41;;;;;;;11.15;6.88;;;;;;;;;;5038683;28;20373;-70
2021/10/09 05:49:07;;;;;;;7.88;6.03;;;;;;;;;;5043347;28;20030;-70
2021/10/09 05:51:52;;;;;;;10.15;5.93;;;;;;;;;;5042152;28;20459;-70
2021/10/09 05:54:26;;;;;;;10.43;6.55;;;;;;;;;;5032626;28;20053;-70
2021/10/09 05:57:00;;;;;;;12.88;5.78;;;;;;;;;;5053639;28;20136;-71
2021/10/09 06:32:09;;;;;;;15.73;6.53;;;;;;;;;;5045888;28;20429;-68
2021/10/09 06:43:08;;;;;;;13.38;6.95;;;;;;;;;;5050996;28;20037;-68
2021/10/09 07:01:33;;;;;;;10.63;7.38;;;;;;;;;;5051084;28;20116;-68
2021/10/09 07:03:58;;;;;;;9.60;6.95;;;;;;;;;;5058612;28;20103;-68
2021/10/09 07:06:24;;;;;;;13.68;8.18;;;;;;;;;;5069084;28;20028;-68
2021/10/09 07:08:49;;;;;;;14.55;9.27;;;;;;;;;;5051205;28;20524;-68
2021/10/09 07:11:15;;;;;;;12.77;8.95;;;;;;;;;;5051681;28;20107;-68
2021/10/09 07:13:42;;;;;;;11.93;8.95;;;;;;;;;;5051312;28;20492;-68
2021/10/09 07:16:07;;;;;;;13.73;8.98;;;;;;;;;;5051288;28;20469;-68
2021/10/09 07:18:33;;;;;;;15.25;9.35;;;;;;;;;;5051013;28;20070;-68
2021/10/09 07:20:58;;;;;;;19.98;10.50;;;;;;;;;;5051205;28;20401;-68
2021/10/09 07:23:23;;;;;;;18.17;10.70;;;;;;;;;;5051125;28;20036;-68
2021/10/09 07:25:49;;;;;;;18.63;10.10;;;;;;;;;;5050991;28;20025;-68
2021/10/09 07:28:14;;;;;;;16.27;10.50;;;;;;;;;;5051251;28;20021;-68
2021/10/09 07:30:41;;;;;;;17.17;11.15;;;;;;;;;;5050656;28;20024;-68
2021/10/09 07:33:06;;;;;;;27.38;15.25;;;;;;;;;;5054032;28;20028;-68
2021/10/09 07:35:32;;;;;;;30.30;18.60;;;;;;;;;;5071061;28;20036;-68
2021/10/09 07:37:57;;;;;;;36.83;19.58;;;;;;;;;;5051345;28;20098;-68
2021/10/09 07:40:23;;;;;;;43.45;21.50;;;;;;;;;;5051146;28;20025;-68
2021/10/09 07:42:48;;;;;;;37.38;20.75;;;;;;;;;;5050511;28;20384;-68
2021/10/09 07:45:14;;;;;;;41.25;21.25;;;;;;;;;;5051087;28;20099;-68
2021/10/09 07:47:40;;;;;;;35.67;21.33;;;;;;;;;;5050824;28;20381;-68
2021/10/09 07:50:06;;;;;;;35.35;20.90;;;;;;;;;;5050600;28;20032;-68
2021/10/09 07:52:31;;;;;;;39.03;21.63;;;;;;;;;;5049782;28;20461;-68
2021/10/09 07:54:57;;;;;;;32.70;20.48;;;;;;;;;;5050657;28;20017;-69
2021/10/09 07:57:22;;;;;;;35.25;20.88;;;;;;;;;;5054821;28;20059;-71
2021/10/09 07:59:48;;;;;;;34.33;19.70;;;;;;;;;;5050478;28;20127;-68
2021/10/09 08:02:13;;;;;;;35.88;20.15;;;;;;;;;;5050763;28;20021;-68
2021/10/09 08:04:39;;;;;;;36.63;21.20;;;;;;;;;;5050661;28;20032;-69
2021/10/09 08:07:04;;;;;;;30.20;19.23;;;;;;;;;;5050556;28;20051;-68
2021/10/09 08:09:33;;;;;;;39.25;20.17;;;;;;;;;;5066586;28;20024;-68
2021/10/09 08:11:59;;;;;;;34.63;20.15;;;;;;;;;;5070903;28;20083;-68
2021/10/09 08:14:25;;;;;;;32.78;19.85;;;;;;;;;;5064121;28;20057;-68
2021/10/09 08:16:50;;;;;;;32.50;20.05;;;;;;;;;;5048610;28;20091;-68
2021/10/09 08:19:16;;;;;;;31.02;19.10;;;;;;;;;;5050140;28;20029;-68
2021/10/09 08:21:43;;;;;;;29.00;17.88;;;;;;;;;;5049950;28;20111;-68
2021/10/09 08:40:33;;;;;;;;;;;;;;;;;;5074258;28;20051;-68
2021/10/09 08:42:58;;;;;;;23.98;15.15;;;;;;;;;;5073802;28;19912;-68
2021/10/09 08:45:23;;;;;;;28.13;15.85;;;;;;;;;;5073727;28;20020;-68
2021/10/09 08:47:50;;;;;;;26.70;16.83;;;;;;;;;;5073824;28;20086;-68
2021/10/09 08:50:15;;;;;;;28.45;16.65;;;;;;;;;;5073745;28;20482;-68
2021/10/09 08:53:03;;;;;;;31.88;15.90;;;;;;;;;;5073538;28;20013;-68
2021/10/09 08:55:30;;;;;;;30.20;16.02;;;;;;;;;;5070054;28;20025;-68
2021/10/09 08:58:01;;;;;;;25.48;15.35;;;;;;;;;;5053422;28;20033;-68
2021/10/09 09:01:03;;;;;;;29.73;15.45;;;;;;;;;;5053570;28;20350;-68
2021/10/09 09:04:21;;;;;;;27.88;14.57;;;;;;;;;;5053317;28;20033;-68
2021/10/09 09:31:31;;;;;;;20.90;12.43;;;;;;;;;;5053075;28;20167;-68
2021/10/09 09:34:19;;;;;;;19.83;13.05;;;;;;;;;;5062052;28;20017;-68
2021/10/09 09:37:06;;;;;;;23.83;13.38;;;;;;;;;;5072713;28;20451;-68
2021/10/09 09:39:39;;;;;;;49.72;28.67;;;;;;;;;;5072814;28;20017;-68
2021/10/09 09:42:05;;;;;;;27.42;14.13;;;;;;;;;;5072561;28;20403;-68
2021/10/09 09:44:30;;;;;;;26.08;13.65;;;;;;;;;;5072625;28;20035;-68
2021/10/09 09:47:07;;;;;;;27.27;12.93;;;;;;;;;;5072434;28;20036;-67
2021/10/09 09:49:33;;;;;;;37.80;19.75;;;;;;;;;;5072593;28;20098;-68
2021/10/09 09:52:00;;;;;;;21.77;12.10;;;;;;;;;;5072455;28;20025;-68
2021/10/09 09:54:28;;;;;;;20.33;12.23;;;;;;;;;;5072487;28;20024;-68
2021/10/09 09:56:59;;;;;;;25.02;12.32;;;;;;;;;;5053668;28;20101;-67
2021/10/09 09:59:31;;;;;;;101.75;48.13;;;;;;;;;;5052808;28;20056;-68
2021/10/09 10:02:00;;;;;;;35.25;29.90;;;;;;;;;;5049693;28;20041;-68
2021/10/09 10:04:27;;;;;;;20.13;10.73;;;;;;;;;;5053324;28;20594;-67
2021/10/09 10:06:52;;;;;;;19.42;11.00;;;;;;;;;;5052854;28;20040;-67
2021/10/09 10:09:18;;;;;;;25.10;12.70;;;;;;;;;;5053213;28;20021;-67
2021/10/09 10:11:44;;;;;;;20.05;10.93;;;;;;;;;;5052810;28;20033;-67
2021/10/09 10:14:11;;;;;;;21.23;12.43;;;;;;;;;;5053251;28;20100;-67
2021/10/09 10:16:37;;;;;;;33.15;21.25;;;;;;;;;;5053009;28;20423;-67
2021/10/09 10:19:02;;;;;;;37.55;23.30;;;;;;;;;;5052881;28;20119;-67
2021/10/09 10:21:36;;;;;;;26.63;13.73;;;;;;;;;;5052952;28;20431;-67
2021/10/09 10:24:02;;;;;;;34.85;19.17;;;;;;;;;;5052536;28;20024;-67
2021/10/09 10:26:33;;;;;;;27.05;13.10;;;;;;;;;;5052844;28;20131;-67
2021/10/09 10:28:58;;;;;;;40.83;28.58;;;;;;;;;;5051358;28;20076;-67
2021/10/09 10:31:25;;;;;;;53.65;33.63;;;;;;;;;;5052825;28;20029;-67
2021/10/09 10:34:01;;;;;;;70.28;43.63;;;;;;;;;;5061410;28;20078;-67
2021/10/09 10:36:46;;;;;;;31.55;18.48;;;;;;;;;;5071562;28;20411;-67
2021/10/09 10:39:14;;;;;;;31.05;21.48;;;;;;;;;;5059643;28;20082;-67
2021/10/09 10:41:55;;;;;;;18.42;11.90;;;;;;;;;;5051409;28;20103;-67
2021/10/09 10:44:43;;;;;;;27.02;13.32;;;;;;;;;;5051537;28;20032;-67
2021/10/09 10:47:51;;;;;;;23.67;13.57;;;;;;;;;;5051229;28;20020;-67
2021/10/09 10:50:42;;;;;;;20.15;13.07;;;;;;;;;;5051646;28;20492;-66
2021/10/09 10:53:11;;;;;;;19.48;13.30;;;;;;;;;;5048511;28;20029;-67
2021/10/09 10:56:08;;;;;;;25.00;16.58;;;;;;;;;;5055876;28;20028;-67
2021/10/09 10:58:35;;;;;;;25.52;14.38;;;;;;;;;;5071362;28;20101;-67
2021/10/09 11:01:30;;;;;;;21.58;15.10;;;;;;;;;;5071497;28;20399;-67
2021/10/09 11:03:56;;;;;;;25.70;17.05;;;;;;;;;;5062114;28;20045;-67
2021/10/09 11:06:25;;;;;;;21.35;13.52;;;;;;;;;;5071183;28;20029;-66
2021/10/09 11:08:52;;;;;;;21.88;13.43;;;;;;;;;;5070927;28;20442;-66
2021/10/09 11:11:36;;;;;;;24.55;14.32;;;;;;;;;;5071031;28;20035;-67
2021/10/09 11:14:02;;;;;;;26.98;14.93;;;;;;;;;;5071289;28;20017;-67
2021/10/09 11:16:29;;;;;;;29.27;17.10;;;;;;;;;;5070980;28;20089;-67
2021/10/09 11:18:54;;;;;;;28.48;17.40;;;;;;;;;;5070852;28;20047;-67
2021/10/09 11:21:21;;;;;;;22.85;14.15;;;;;;;;;;5070950;28;20132;-67
2021/10/09 11:23:55;;;;;;;24.25;14.35;;;;;;;;;;5069488;28;20029;-67
2021/10/09 11:26:22;;;;;;;22.45;13.48;;;;;;;;;;5070898;28;20162;-67
2021/10/09 11:29:09;;;;;;;28.58;17.88;;;;;;;;;;5070645;28;20032;-67
2021/10/09 11:31:35;;;;;;;45.25;27.13;;;;;;;;;;5070906;28;20028;-67
2021/10/09 11:34:02;;;;;;;43.63;28.17;;;;;;;;;;5060077;28;20155;-67
2021/10/09 11:36:29;;;;;;;49.47;33.17;;;;;;;;;;5051275;28;20056;-67
2021/10/09 11:39:05;;;;;;;39.58;27.10;;;;;;;;;;5050713;28;20041;-66
2021/10/09 11:41:31;;;;;;;35.35;21.02;;;;;;;;;;5050741;28;20356;-66
2021/10/09 11:47:19;;;;;;;22.63;15.15;;;;;;;;;;5050975;28;20408;-66
2021/10/09 11:55:18;;;;;;;21.38;14.77;;;;;;;;;;5050411;28;20592;-67
2021/10/09 11:57:44;;;;;;;27.95;15.65;;;;;;;;;;5071520;28;20028;-67
2021/10/09 12:00:27;;;;;;;22.95;15.43;;;;;;;;;;5074404;28;20105;-67
2021/10/09 12:02:56;;;;;;;20.38;12.85;;;;;;;;;;5074384;28;20024;-66
2021/10/09 12:05:22;;;;;;;25.50;13.52;;;;;;;;;;5074513;28;20524;-66
2021/10/09 12:08:14;;;;;;;21.00;13.77;;;;;;;;;;5074438;28;20115;-66
2021/10/09 12:10:40;;;;;;;19.35;15.00;;;;;;;;;;5074622;28;20024;-66
2021/10/09 12:13:06;;;;;;;28.42;19.33;;;;;;;;;;5074414;28;20020;-66
2021/10/09 12:15:36;;;;;;;19.52;14.85;;;;;;;;;;5074431;28;20520;-66
2021/10/09 12:18:02;;;;;;;18.33;13.80;;;;;;;;;;5074284;28;20025;-66
2021/10/09 12:20:29;;;;;;;23.13;17.83;;;;;;;;;;5074353;28;20052;-66
2021/10/09 12:22:56;;;;;;;22.10;16.27;;;;;;;;;;5073852;28;20028;-66
2021/10/09 12:25:26;;;;;;;21.90;15.82;;;;;;;;;;5074149;28;20076;-67
2021/10/09 12:27:59;;;;;;;24.27;16.73;;;;;;;;;;5073953;28;20025;-66
2021/10/09 12:30:46;;;;;;;;;;;;;;;;;;5074583;28;20024;-66
2021/10/09 12:33:32;;;;;;;28.25;20.67;;;;;;;;;;5070427;28;20022;-66
2021/10/09 12:36:25;;;;;;;25.05;15.80;;;;;;;;;;5054189;28;20025;-66
2021/10/09 12:38:51;;;;;;;21.70;16.05;;;;;;;;;;5053887;28;20117;-66
2021/10/09 12:41:16;;;;;;;22.33;15.70;;;;;;;;;;5053926;28;20108;-67
2021/10/09 12:43:43;;;;;;;18.05;13.18;;;;;;;;;;5053713;28;20385;-66
2021/10/09 12:46:09;;;;;;;20.77;16.58;;;;;;;;;;5053517;28;20028;-67
2021/10/09 12:48:34;;;;;;;25.15;17.10;;;;;;;;;;5054189;28;20024;-66
2021/10/09 12:50:59;;;;;;;30.80;18.98;;;;;;;;;;5053590;28;20032;-66
2021/10/09 12:53:25;;;;;;;26.73;16.88;;;;;;;;;;5053591;28;20040;-66
2021/10/09 12:55:50;;;;;;;33.75;20.02;;;;;;;;;;5059950;28;20535;-66
2021/10/09 12:58:16;;;;;;;28.42;18.58;;;;;;;;;;5073433;28;20086;-67
2021/10/09 13:00:41;;;;;;;40.75;25.27;;;;;;;;;;5073633;28;20024;-66
2021/10/09 13:03:07;;;;;;;34.30;23.77;;;;;;;;;;5073210;28;20427;-66
2021/10/09 13:05:33;;;;;;;38.80;24.73;;;;;;;;;;5073522;28;20032;-67
2021/10/09 13:08:00;;;;;;;33.08;20.63;;;;;;;;;;5073257;28;20028;-67
2021/10/09 13:10:28;;;;;;;25.58;17.42;;;;;;;;;;5073270;28;20035;-67
2021/10/09 13:12:53;;;;;;;33.38;19.02;;;;;;;;;;5073459;28;20024;-67
2021/10/09 13:15:19;;;;;;;53.67;34.88;;;;;;;;;;5073398;28;20518;-67
2021/10/09 13:17:46;;;;;;;27.33;18.88;;;;;;;;;;5073238;28;20024;-67
2021/10/09 13:20:12;;;;;;;22.35;14.18;;;;;;;;;;5073187;28;20025;-66
2021/10/09 13:22:37;;;;;;;28.88;20.50;;;;;;;;;;5071609;28;20066;-66
2021/10/09 13:25:04;;;;;;;23.50;15.57;;;;;;;;;;5073036;28;20028;-66
2021/10/09 13:27:29;;;;;;;27.48;17.10;;;;;;;;;;5072929;28;20056;-66
2021/10/09 13:29:55;;;;;;;41.38;28.65;;;;;;;;;;5072932;28;20051;-67
2021/10/09 13:32:20;;;;;;;25.20;15.70;;;;;;;;;;5072944;28;20012;-67
2021/10/09 13:34:46;;;;;;;27.73;20.25;;;;;;;;;;5056220;28;20061;-66
2021/10/09 13:37:19;;;;;;;34.70;23.52;;;;;;;;;;5052989;28;20033;-67
2021/10/09 13:39:45;;;;;;;22.80;12.93;;;;;;;;;;5051840;28;20481;-66
2021/10/09 13:42:11;;;;;;;45.83;29.33;;;;;;;;;;5052566;28;20094;-66
2021/10/09 13:44:36;;;;;;;22.88;13.60;;;;;;;;;;5052638;28;20380;-66
2021/10/09 13:47:01;;;;;;;31.45;20.67;;;;;;;;;;5052481;28;20025;-66
2021/10/09 13:49:27;;;;;;;25.38;17.38;;;;;;;;;;5052645;28;20428;-67
2021/10/09 13:51:52;;;;;;;21.63;17.23;;;;;;;;;;5052470;28;20029;-68
2021/10/09 13:54:18;;;;;;;34.63;25.67;;;;;;;;;;5052650;28;20028;-66
2021/10/09 13:56:43;;;;;;;32.65;22.63;;;;;;;;;;5066380;28;20024;-67
2021/10/09 13:59:08;;;;;;;24.40;16.15;;;;;;;;;;5072162;28;20044;-66
2021/10/09 14:01:34;;;;;;;19.50;11.55;;;;;;;;;;5072317;28;20024;-66
2021/10/09 14:04:00;;;;;;;31.38;20.45;;;;;;;;;;5072170;28;20030;-66
2021/10/09 14:06:26;;;;;;;25.48;15.95;;;;;;;;;;5072316;28;20078;-66
2021/10/09 14:08:53;;;;;;;25.73;16.23;;;;;;;;;;5059118;28;20033;-67
2021/10/09 14:11:20;;;;;;;22.60;13.90;;;;;;;;;;5052608;28;20416;-67
2021/10/09 14:13:45;;;;;;;21.92;14.90;;;;;;;;;;5053255;28;20025;-67
2021/10/09 14:16:11;;;;;;;21.30;14.90;;;;;;;;;;5052764;28;20039;-67
2021/10/09 14:18:36;;;;;;;20.77;13.30;;;;;;;;;;5053191;28;20036;-67
2021/10/09 14:21:02;;;;;;;21.95;13.80;;;;;;;;;;5052103;28;20031;-67
2021/10/09 14:23:27;;;;;;;24.83;15.55;;;;;;;;;;5032991;28;20029;-66
2021/10/09 14:25:53;;;;;;;25.85;16.65;;;;;;;;;;5033213;28;20396;-66
2021/10/09 14:28:19;;;;;;;24.08;17.35;;;;;;;;;;5032758;28;20021;-67
2021/10/09 14:30:46;;;;;;;22.98;15.68;;;;;;;;;;5033137;28;20095;-67
2021/10/09 14:33:11;;;;;;;26.80;15.52;;;;;;;;;;5040085;28;20008;-67
2021/10/09 14:35:37;;;;;;;23.08;16.10;;;;;;;;;;5064174;28;20062;-67
2021/10/09 14:38:04;;;;;;;24.20;15.98;;;;;;;;;;5051166;28;20115;-67
2021/10/09 14:40:30;;;;;;;32.75;21.20;;;;;;;;;;5052677;28;20017;-67
2021/10/09 14:42:55;;;;;;;22.48;15.20;;;;;;;;;;5052469;28;20027;-67
2021/10/09 14:45:21;;;;;;;39.10;20.23;;;;;;;;;;5052709;28;20461;-67
2021/10/09 14:53:14;;;;;;;21.00;12.05;;;;;;;;;;5052622;28;20027;-67
2021/10/09 15:20:11;;;;;;;17.95;12.27;;;;;;;;;;5051294;28;20065;-67
2021/10/09 15:22:37;;;;;;;27.77;12.77;;;;;;;;;;5050856;28;20118;-67
2021/10/09 15:25:03;;;;;;;21.17;11.63;;;;;;;;;;5050684;28;20021;-67
2021/10/09 15:27:29;;;;;;;23.58;13.90;;;;;;;;;;5050905;28;20123;-67
2021/10/09 15:29:56;;;;;;;20.77;13.90;;;;;;;;;;5050868;28;20392;-67
2021/10/09 15:32:21;;;;;;;18.60;11.38;;;;;;;;;;5049838;28;20029;-67
2021/10/09 15:34:47;;;;;;;19.63;11.00;;;;;;;;;;5067819;28;20378;-67
2021/10/09 15:37:13;;;;;;;21.13;12.35;;;;;;;;;;5070764;28;20020;-67
2021/10/09 15:39:39;;;;;;;16.40;11.05;;;;;;;;;;5071166;28;20070;-67
2021/10/09 15:42:05;;;;;;;15.00;10.27;;;;;;;;;;5070602;28;20100;-67
2021/10/09 15:44:31;;;;;;;22.42;13.10;;;;;;;;;;5070652;28;20029;-67
2021/10/09 15:46:57;;;;;;;24.55;12.13;;;;;;;;;;5070742;28;20111;-67
2021/10/09 15:49:23;;;;;;;21.25;12.15;;;;;;;;;;5070725;28;20263;-67
2021/10/09 15:51:49;;;;;;;18.95;10.68;;;;;;;;;;5067772;28;20436;-67
2021/10/09 15:54:14;;;;;;;21.23;11.00;;;;;;;;;;5049410;28;20030;-67
2021/10/09 15:56:40;;;;;;;18.88;11.02;;;;;;;;;;5063836;28;20024;-67
2021/10/09 15:59:05;;;;;;;17.63;10.70;;;;;;;;;;5062629;28;20052;-67
2021/10/09 16:01:30;;;;;;;16.77;11.10;;;;;;;;;;5050544;28;20052;-67
2021/10/09 16:03:56;;;;;;;19.58;10.75;;;;;;;;;;5050874;28;20025;-67
2021/10/09 16:06:23;;;;;;;18.20;11.95;;;;;;;;;;5050172;28;20025;-67
2021/10/09 16:08:48;;;;;;;23.85;11.55;;;;;;;;;;5050498;28;20469;-67
2021/10/09 16:11:13;;;;;;;18.90;11.20;;;;;;;;;;5048098;28;20347;-67
2021/10/09 16:13:39;;;;;;;17.00;10.13;;;;;;;;;;5050313;28;20021;-67
2021/10/09 16:16:05;;;;;;;22.75;11.63;;;;;;;;;;5050261;28;20168;-67
2021/10/09 16:18:30;;;;;;;20.88;11.20;;;;;;;;;;5050452;28;20025;-67
2021/10/09 16:20:56;;;;;;;17.90;10.77;;;;;;;;;;5050411;28;20049;-67
2021/10/09 16:23:21;;;;;;;18.13;11.82;;;;;;;;;;5049202;28;20062;-67
2021/10/09 16:25:47;;;;;;;22.02;11.40;;;;;;;;;;5055357;28;20053;-67
2021/10/09 16:28:12;;;;;;;16.63;10.88;;;;;;;;;;5070836;28;20020;-67
2021/10/09 16:30:38;;;;;;;17.95;12.23;;;;;;;;;;5060102;28;20075;-67
2021/10/09 16:33:03;;;;;;;20.73;11.70;;;;;;;;;;5053300;28;20029;-67
2021/10/09 16:35:29;;;;;;;22.95;12.85;;;;;;;;;;5071307;28;20104;-67
2021/10/09 16:37:54;;;;;;;23.20;13.23;;;;;;;;;;5071179;28;20488;-67
2021/10/09 16:40:20;;;;;;;23.25;13.32;;;;;;;;;;5057034;28;20850;-67
2021/10/09 16:42:46;;;;;;;23.00;12.70;;;;;;;;;;5049331;28;20039;-67
2021/10/09 16:45:12;;;;;;;21.15;13.45;;;;;;;;;;5053358;28;20487;-67
2021/10/09 16:47:38;;;;;;;20.60;12.23;;;;;;;;;;5055422;28;20033;-67
2021/10/09 16:50:04;;;;;;;23.58;12.60;;;;;;;;;;5074179;28;20433;-67
2021/10/09 16:52:29;;;;;;;19.98;12.35;;;;;;;;;;5056753;28;20048;-67
2021/10/09 16:54:54;;;;;;;24.45;11.82;;;;;;;;;;5061439;28;20107;-67